Time;durP1;ratioP1;P1;durP2;ratioP2;P2;SDS_P1;SDS_P2;PMS_P1;PMS_P2;Temp;Humidity;BMP_temperature;BMP_pressure;BME280_temperature;BME280_humidity;BME280_pressure;Samples;Min_cycle;Max_cycle;Signal;HPM_P1;HPM_P2
2022/05/02 00:01:56;;;;;;;4.77;4.37;;;22.90;51.70;;;;;;5008233;28;20193;-85
2022/05/02 00:04:22;;;;;;;4.70;4.30;;;22.90;51.60;;;;;;5008903;28;20184;-85
2022/05/02 00:06:48;;;;;;;5.43;4.93;;;22.80;51.60;;;;;;5008366;28;20436;-85
2022/05/02 00:09:19;;;;;;;4.77;4.33;;;22.90;51.70;;;;;;5007233;28;20240;-85
2022/05/02 00:11:45;;;;;;;5.10;4.70;;;22.90;51.80;;;;;;5008771;28;20591;-85
2022/05/02 00:14:11;;;;;;;5.30;4.83;;;22.90;51.70;;;;;;5009572;28;20463;-85
2022/05/02 00:16:39;;;;;;;4.53;4.13;;;22.90;51.70;;;;;;5007766;28;20248;-85
2022/05/02 00:19:04;;;;;;;4.80;4.40;;;22.90;51.70;;;;;;5007227;28;20432;-85
2022/05/02 00:21:30;;;;;;;5.10;4.70;;;22.90;51.80;;;;;;5008353;28;20457;-85
2022/05/02 00:23:56;;;;;;;4.83;4.40;;;22.90;51.80;;;;;;5007964;28;20248;-85
2022/05/02 00:26:22;;;;;;;5.13;4.63;;;22.90;51.80;;;;;;5009039;28;20180;-85
2022/05/02 00:28:48;;;;;;;4.83;4.43;;;22.90;51.80;;;;;;4991950;28;20453;-85
2022/05/02 00:31:13;;;;;;;4.90;4.50;;;22.90;51.80;;;;;;5023851;28;20177;-85
2022/05/02 00:33:39;;;;;;;5.20;4.63;;;22.90;51.80;;;;;;5008707;28;20207;-85
2022/05/02 00:36:05;;;;;;;4.87;4.47;;;22.90;51.80;;;;;;5007693;28;20173;-85
2022/05/02 00:38:31;;;;;;;4.73;4.33;;;22.90;51.70;;;;;;5009126;28;20407;-85
2022/05/02 00:40:58;;;;;;;4.03;3.63;;;22.90;51.70;;;;;;5009074;28;20455;-85
2022/05/02 00:43:24;;;;;;;4.30;3.90;;;22.90;51.70;;;;;;5004173;28;20433;-85
2022/05/02 00:45:50;;;;;;;4.67;4.20;;;22.90;51.70;;;;;;4988032;28;20506;-85
2022/05/02 00:48:16;;;;;;;4.47;4.00;;;22.90;51.70;;;;;;4988572;28;20182;-85
2022/05/02 00:50:44;;;;;;;4.57;4.17;;;22.90;51.70;;;;;;4987730;28;20428;-85
2022/05/02 00:53:12;;;;;;;4.50;4.10;;;22.90;51.70;;;;;;4989454;28;20449;-85
2022/05/02 00:55:39;;;;;;;4.93;4.43;;;22.90;51.70;;;;;;5005133;28;20432;-85
2022/05/02 00:58:06;;;;;;;4.80;4.40;;;22.90;51.80;;;;;;4988685;28;20448;-85
2022/05/02 01:00:35;;;;;;;4.60;4.20;;;22.90;52.30;;;;;;4987865;28;20425;-85
2022/05/02 01:03:03;;;;;;;4.63;4.23;;;22.90;51.80;;;;;;4988533;28;20421;-84
2022/05/02 01:05:30;;;;;;;4.80;4.40;;;22.90;51.80;;;;;;5004570;28;20433;-84
2022/05/02 01:07:56;;;;;;;4.80;4.20;;;22.80;51.70;;;;;;4989520;28;20409;-85
2022/05/02 01:10:22;;;;;;;6.00;4.87;;;22.80;51.70;;;;;;4989068;28;20415;-85
2022/05/02 01:12:49;;;;;;;5.00;4.53;;;22.90;51.80;;;;;;4988886;28;20169;-85
2022/05/02 01:15:16;;;;;;;4.33;3.93;;;22.80;51.70;;;;;;4988757;28;20401;-85
2022/05/02 01:17:45;;;;;;;5.40;4.90;;;22.80;51.70;;;;;;4988878;28;20405;-85
2022/05/02 01:20:15;;;;;;;4.60;4.20;;;22.80;51.70;;;;;;5004336;28;20444;-85
2022/05/02 01:22:44;;;;;;;5.00;4.60;;;22.80;51.70;;;;;;4987798;28;20434;-85
2022/05/02 01:25:11;;;;;;;5.00;4.60;;;22.80;51.70;;;;;;5003519;28;20431;-85
2022/05/02 01:27:37;;;;;;;4.77;4.37;;;22.80;51.70;;;;;;4986717;28;20441;-85
2022/05/02 01:30:05;;;;;;;4.70;4.40;;;22.80;51.70;;;;;;4990931;28;20420;-84
2022/05/02 01:32:30;;;;;;;4.70;4.27;;;22.80;51.80;;;;;;5009989;28;20941;-85
2022/05/02 01:34:56;;;;;;;4.87;4.47;;;22.80;51.80;;;;;;5009778;28;20460;-85
2022/05/02 01:37:25;;;;;;;4.40;4.00;;;22.80;52.00;;;;;;5010327;28;20169;-85
2022/05/02 01:39:50;;;;;;;4.27;3.87;;;22.80;52.30;;;;;;5009521;28;20177;-85
2022/05/02 01:42:16;;;;;;;4.40;4.00;;;22.80;51.80;;;;;;5008003;28;20432;-85
2022/05/02 01:44:42;;;;;;;4.63;4.20;;;22.80;51.80;;;;;;5008795;28;20218;-85
2022/05/02 01:47:08;;;;;;;3.97;3.67;;;22.80;51.80;;;;;;5010061;28;20192;-85
2022/05/02 01:49:34;;;;;;;3.90;3.60;;;22.80;51.80;;;;;;5010181;28;20552;-85
2022/05/02 01:52:00;;;;;;;4.17;3.77;;;22.80;51.80;;;;;;5010281;28;20416;-85
2022/05/02 01:54:26;;;;;;;4.20;3.83;;;22.80;51.80;;;;;;5026708;28;20784;-85
2022/05/02 01:56:53;;;;;;;4.27;3.87;;;22.80;51.80;;;;;;5027099;28;20220;-85
2022/05/02 01:59:18;;;;;;;4.17;3.87;;;22.80;51.80;;;;;;5011742;28;20424;-85
2022/05/02 02:01:44;;;;;;;4.03;3.73;;;22.80;51.90;;;;;;5010446;28;20420;-85
2022/05/02 02:06:54;;;;;;;4.60;4.17;;;22.80;51.80;;;;;;5010888;28;20224;-85
2022/05/02 02:09:20;;;;;;;3.93;3.63;;;22.80;51.80;;;;;;5010486;28;20425;-85
2022/05/02 02:11:46;;;;;;;4.00;3.70;;;22.80;51.90;;;;;;5010041;28;20594;-85
2022/05/02 02:14:12;;;;;;;4.50;4.10;;;22.80;51.90;;;;;;5009860;28;20468;-85
2022/05/02 02:16:38;;;;;;;4.57;4.17;;;22.80;51.80;;;;;;5009634;28;20441;-85
2022/05/02 02:19:04;;;;;;;4.50;4.10;;;22.80;51.80;;;;;;5011345;28;20409;-85
2022/05/02 02:21:31;;;;;;;4.00;3.70;;;22.80;51.80;;;;;;5026668;28;20685;-85
2022/05/02 02:23:57;;;;;;;4.63;4.23;;;22.80;51.80;;;;;;5010428;28;20409;-85
2022/05/02 02:26:23;;;;;;;3.97;3.67;;;22.80;51.80;;;;;;5010586;28;20416;-85
2022/05/02 02:28:49;;;;;;;4.57;4.17;;;22.80;51.80;;;;;;5010784;28;20510;-85
2022/05/02 02:31:15;;;;;;;4.03;3.73;;;22.80;51.80;;;;;;5009147;28;20181;-85
2022/05/02 02:33:41;;;;;;;4.30;3.90;;;22.80;51.80;;;;;;5025897;28;20387;-85
2022/05/02 02:36:07;;;;;;;4.13;3.77;;;22.80;51.90;;;;;;5008579;28;20185;-85
2022/05/02 02:38:32;;;;;;;4.10;3.80;;;22.80;51.90;;;;;;5009855;28;21059;-85
2022/05/02 02:40:58;;;;;;;4.03;3.73;;;22.80;51.90;;;;;;5008850;28;20245;-85
2022/05/02 02:43:25;;;;;;;4.77;4.30;;;22.80;51.90;;;;;;4993774;28;20205;-85
2022/05/02 02:45:50;;;;;;;4.70;4.33;;;22.80;51.90;;;;;;4993456;28;20411;-85
2022/05/02 02:48:16;;;;;;;4.20;3.80;;;22.80;51.90;;;;;;5009227;28;20424;-85
2022/05/02 02:50:42;;;;;;;3.80;3.50;;;22.80;51.90;;;;;;5010426;28;20176;-85
2022/05/02 02:53:08;;;;;;;4.10;3.70;;;22.80;51.90;;;;;;5010432;28;20212;-85
2022/05/02 02:55:34;;;;;;;4.37;3.97;;;22.80;51.90;;;;;;5009444;28;20553;-85
2022/05/02 02:58:00;;;;;;;3.83;3.47;;;22.80;51.90;;;;;;5009115;28;20169;-85
2022/05/02 03:00:25;;;;;;;4.33;3.50;;;22.80;51.90;;;;;;5008642;28;20929;-85
2022/05/02 03:02:52;;;;;;;3.73;3.43;;;22.80;52.50;;;;;;5009143;28;20603;-85
2022/05/02 03:06:18;;;;;;;3.83;3.50;;;22.80;51.90;;;;;;5009697;28;20181;-85
2022/05/02 03:08:13;;;;;;;4.13;3.83;;;22.80;51.90;;;;;;5005253;28;20922;-85
2022/05/02 03:10:39;;;;;;;3.67;3.37;;;22.80;52.00;;;;;;5009087;28;20420;-85
2022/05/02 03:13:05;;;;;;;4.10;3.80;;;22.80;52.00;;;;;;5009105;28;20197;-85
2022/05/02 03:15:33;;;;;;;4.27;3.90;;;22.80;52.00;;;;;;5008705;28;20234;-85
2022/05/02 03:17:58;;;;;;;4.20;3.90;;;22.80;52.00;;;;;;5008831;28;20484;-85
2022/05/02 03:20:24;;;;;;;3.90;3.60;;;22.80;52.00;;;;;;5008495;28;20431;-85
2022/05/02 03:22:50;;;;;;;4.03;3.73;;;22.80;52.00;;;;;;5009152;28;20187;-85
2022/05/02 03:25:16;;;;;;;4.97;4.47;;;22.80;52.00;;;;;;4992207;28;20189;-85
2022/05/02 03:27:41;;;;;;;4.07;3.67;;;22.80;52.00;;;;;;5008664;28;20207;-85
2022/05/02 03:30:08;;;;;;;4.43;4.00;;;22.80;52.00;;;;;;5009001;28;20178;-85
2022/05/02 03:32:34;;;;;;;4.30;3.90;;;22.80;52.00;;;;;;5010513;28;20209;-85
2022/05/02 03:35:00;;;;;;;4.13;3.83;;;22.80;52.00;;;;;;5009824;28;20464;-85
2022/05/02 03:37:25;;;;;;;4.63;3.73;;;22.80;52.00;;;;;;5008800;28;20249;-85
2022/05/02 03:39:51;;;;;;;3.80;3.50;;;22.80;52.00;;;;;;5008462;28;20272;-85
2022/05/02 03:42:17;;;;;;;3.53;3.23;;;22.80;52.00;;;;;;5008917;28;20556;-85
2022/05/02 03:44:48;;;;;;;3.93;3.63;;;22.80;52.00;;;;;;4992451;28;20193;-85
2022/05/02 03:47:15;;;;;;;4.13;3.80;;;22.80;52.00;;;;;;5009164;28;20165;-85
2022/05/02 03:49:41;;;;;;;3.77;3.47;;;22.80;52.00;;;;;;5008931;28;20428;-85
2022/05/02 03:52:07;;;;;;;3.93;3.63;;;22.80;52.00;;;;;;5008605;28;20424;-85
2022/05/02 03:54:35;;;;;;;4.00;3.70;;;22.80;52.00;;;;;;5002565;28;20223;-85
2022/05/02 03:57:01;;;;;;;3.60;3.30;;;22.80;52.00;;;;;;4999779;28;20192;-85
2022/05/02 03:59:27;;;;;;;3.70;3.40;;;22.80;52.00;;;;;;4992057;28;20487;-84
2022/05/02 04:01:53;;;;;;;3.90;3.60;;;22.70;51.90;;;;;;5008255;28;20469;-84
2022/05/02 04:04:19;;;;;;;3.90;3.60;;;22.80;52.00;;;;;;5010166;28;20165;-84
2022/05/02 04:06:48;;;;;;;4.03;3.53;;;22.80;52.00;;;;;;4994655;28;20181;-84
2022/05/02 04:09:14;;;;;;;4.20;3.80;;;22.70;52.00;;;;;;5012254;28;20432;-84
2022/05/02 04:11:41;;;;;;;4.20;3.80;;;22.80;52.10;;;;;;5011384;28;20894;-84
2022/05/02 04:14:07;;;;;;;4.03;3.63;;;22.70;52.00;;;;;;5010808;28;20487;-84
2022/05/02 04:16:33;;;;;;;3.60;3.30;;;22.70;52.00;;;;;;5010524;28;20413;-84
2022/05/02 04:18:59;;;;;;;3.53;3.23;;;22.70;52.00;;;;;;5010078;28;20172;-84
2022/05/02 04:21:24;;;;;;;3.60;3.30;;;22.70;52.00;;;;;;5008836;28;20438;-84
2022/05/02 04:23:50;;;;;;;3.60;3.30;;;22.70;52.00;;;;;;5007754;28;20196;-84
2022/05/02 04:26:16;;;;;;;3.70;3.10;;;22.70;52.00;;;;;;5008336;28;20173;-85
2022/05/02 04:28:42;;;;;;;3.60;3.30;;;22.70;52.00;;;;;;5007611;28;20208;-84
2022/05/02 04:31:07;;;;;;;3.90;3.60;;;22.70;52.00;;;;;;5006754;28;20276;-84
2022/05/02 04:33:33;;;;;;;3.70;3.40;;;22.70;52.10;;;;;;5006667;28;20264;-85
2022/05/02 04:35:59;;;;;;;3.53;3.23;;;22.70;52.10;;;;;;5005862;28;20173;-84
2022/05/02 04:38:28;;;;;;;3.33;3.13;;;22.70;52.10;;;;;;5005580;28;20169;-84
2022/05/02 04:40:54;;;;;;;3.57;3.27;;;22.70;52.10;;;;;;5006955;28;20169;-84
2022/05/02 04:43:21;;;;;;;3.30;3.00;;;22.70;52.10;;;;;;5006845;28;20474;-84
2022/05/02 04:45:48;;;;;;;4.43;4.03;;;22.70;52.10;;;;;;5006311;28;20189;-84
2022/05/02 04:48:13;;;;;;;3.73;3.43;;;22.70;52.10;;;;;;5008672;28;20408;-84
2022/05/02 04:50:39;;;;;;;3.90;3.60;;;22.70;52.20;;;;;;5023354;28;20431;-84
2022/05/02 04:53:05;;;;;;;3.60;3.30;;;22.80;52.30;;;;;;5008138;28;20223;-84
2022/05/02 04:55:31;;;;;;;3.20;2.90;;;22.70;52.20;;;;;;5006721;28;20674;-84
2022/05/02 04:57:56;;;;;;;3.77;3.37;;;22.70;52.20;;;;;;5006824;28;20173;-84
2022/05/02 05:00:37;;;;;;;3.60;3.30;;;22.70;52.20;;;;;;5008037;28;20176;-84
2022/05/02 05:03:05;;;;;;;4.07;3.73;;;22.80;52.40;;;;;;5006861;28;20199;-85
2022/05/02 05:05:32;;;;;;;3.97;3.63;;;22.80;52.40;;;;;;5025662;28;20934;-85
2022/05/02 05:07:57;;;;;;;3.43;3.13;;;22.80;52.40;;;;;;5027131;28;20424;-84
2022/05/02 05:10:23;;;;;;;3.87;3.50;;;22.80;52.40;;;;;;5011539;28;20506;-85
2022/05/02 05:12:49;;;;;;;3.90;3.40;;;22.80;52.40;;;;;;5010188;28;20902;-85
2022/05/02 05:18:34;;;;;;;3.80;3.40;;;22.80;52.40;;;;;;5011211;28;20165;-85
2022/05/02 05:21:38;;;;;;;4.37;3.37;;;22.80;53.00;;;;;;5010096;28;20445;-85
2022/05/02 05:24:32;;;;;;;4.83;3.13;;;22.80;52.40;;;;;;5010150;28;20435;-85
2022/05/02 05:27:23;;;;;;;3.60;3.30;;;22.80;52.40;;;;;;5011418;28;20436;-84
2022/05/02 05:30:07;;;;;;;2.97;2.70;;;22.80;52.50;;;;;;5010978;28;20409;-84
2022/05/02 05:33:13;;;;;;;4.20;3.43;;;22.80;52.50;;;;;;5010803;28;20404;-84
2022/05/02 05:36:29;;;;;;;4.27;3.83;;;22.80;52.50;;;;;;4968635;29;21034;-84
2022/05/02 05:38:56;;;;;;;3.33;3.03;;;22.80;52.50;;;;;;5011843;28;20463;-83
2022/05/02 05:41:43;;;;;;;3.70;3.40;;;22.70;52.50;;;;;;5011212;28;20458;-85
2022/05/02 05:44:32;;;;;;;4.00;3.60;;;22.80;52.50;;;;;;4996535;28;20431;-84
2022/05/02 05:50:29;;;;;;;3.87;3.30;;;22.80;52.50;;;;;;5012580;28;20408;-85
2022/05/02 05:53:08;;;;;;;3.60;3.30;;;22.80;52.50;;;;;;4997090;28;20450;-85
2022/05/02 05:56:16;;;;;;;3.63;3.33;;;22.80;52.50;;;;;;5013730;28;20486;-84
2022/05/02 05:59:00;;;;;;;3.33;3.13;;;22.80;52.50;;;;;;4996968;28;20420;-85
2022/05/02 06:01:40;;;;;;;3.20;2.90;;;22.80;52.50;;;;;;4997440;28;20420;-85
2022/05/02 06:04:09;;;;;;;3.40;2.80;;;22.80;52.50;;;;;;5013148;28;20396;-85
2022/05/02 06:06:36;;;;;;;3.43;3.13;;;22.80;52.50;;;;;;4997028;28;20416;-85
2022/05/02 06:09:03;;;;;;;3.77;2.87;;;22.80;52.50;;;;;;5012207;28;20469;-85
2022/05/02 06:11:29;;;;;;;3.40;2.50;;;22.80;52.50;;;;;;5012439;28;20500;-85
2022/05/02 06:14:01;;;;;;;3.37;2.90;;;22.80;52.50;;;;;;4994236;28;20558;-85
2022/05/02 06:19:17;;;;;;;5.50;4.53;;;22.90;52.50;;;;;;4997109;28;20399;-84
2022/05/02 06:21:44;;;;;;;3.27;2.97;;;22.90;52.50;;;;;;5010430;28;20426;-84
2022/05/02 06:24:11;;;;;;;2.97;2.67;;;22.90;52.50;;;;;;5009217;28;20412;-85
2022/05/02 06:26:40;;;;;;;3.27;2.97;;;22.90;52.50;;;;;;5010541;28;20423;-84
2022/05/02 06:29:08;;;;;;;3.43;3.13;;;22.90;52.50;;;;;;5009444;28;20436;-85
2022/05/02 06:31:44;;;;;;;3.50;3.20;;;22.90;52.50;;;;;;5011535;28;20485;-84
2022/05/02 06:34:11;;;;;;;3.87;3.10;;;22.90;52.50;;;;;;5010653;28;20513;-84
2022/05/02 06:37:02;;;;;;;3.00;2.80;;;22.90;52.50;;;;;;4994566;28;20397;-84
2022/05/02 06:39:31;;;;;;;3.47;3.17;;;22.90;52.40;;;;;;4990756;28;20414;-84
2022/05/02 06:42:20;;;;;;;3.03;2.77;;;22.90;52.50;;;;;;4990518;28;20425;-84
2022/05/02 06:45:06;;;;;;;3.03;2.70;;;22.90;52.50;;;;;;4990354;28;20440;-84
2022/05/02 06:48:04;;;;;;;2.90;2.60;;;22.90;52.50;;;;;;4991258;28;20401;-85
2022/05/02 06:50:33;;;;;;;3.30;3.00;;;22.90;52.50;;;;;;4991119;28;20406;-85
2022/05/02 06:53:08;;;;;;;4.10;3.03;;;22.90;52.50;;;;;;4988413;28;20413;-84
2022/05/02 06:56:21;;;;;;;2.67;2.47;;;22.90;53.00;;;;;;4989086;28;20417;-84
2022/05/02 06:59:15;;;;;;;2.77;2.53;;;22.90;52.40;;;;;;4999071;28;20430;-84
2022/05/02 07:02:13;;;;;;;3.40;3.10;;;22.90;52.40;;;;;;4990481;28;20465;-84
2022/05/02 07:05:20;;;;;;;3.00;2.70;;;22.90;52.50;;;;;;4990480;28;20880;-84
2022/05/02 07:08:05;;;;;;;3.00;2.70;;;22.90;52.50;;;;;;4991282;28;20412;-84
2022/05/02 07:10:41;;;;;;;2.67;2.43;;;22.90;52.50;;;;;;4989892;28;20425;-83
2022/05/02 07:13:56;;;;;;;2.80;2.60;;;22.90;52.50;;;;;;4990978;28;20467;-84
2022/05/02 07:16:43;;;;;;;;;;;;;;;;;;;;;
2022/05/02 07:19:35;;;;;;;2.73;2.53;;;22.90;52.50;;;;;;4990838;28;20409;-84
2022/05/02 07:22:03;;;;;;;3.33;3.00;;;23.00;52.60;;;;;;4990546;28;20406;-84
2022/05/02 07:24:55;;;;;;;2.67;2.47;;;22.90;52.50;;;;;;4989993;28;20417;-83
2022/05/02 07:27:45;;;;;;;3.10;2.80;;;23.00;52.60;;;;;;4990373;28;20443;-85
2022/05/02 07:30:13;;;;;;;3.30;3.00;;;23.00;52.60;;;;;;4989414;28;20433;-85
2022/05/02 07:32:43;;;;;;;2.63;2.37;;;23.00;52.60;;;;;;4990727;28;20416;-85
2022/05/02 07:35:13;;;;;;;2.57;2.37;;;23.00;52.60;;;;;;4989711;28;20908;-85
2022/05/02 07:37:41;;;;;;;2.50;2.30;;;23.00;52.60;;;;;;4990559;28;20410;-85
2022/05/02 07:40:10;;;;;;;3.30;2.80;;;23.00;52.60;;;;;;4996634;28;20442;-85
2022/05/02 07:42:39;;;;;;;2.60;2.40;;;23.00;52.50;;;;;;5022223;28;20421;-85
2022/05/02 07:45:10;;;;;;;2.50;2.30;;;23.00;52.50;;;;;;4984159;28;20421;-85
2022/05/02 07:47:37;;;;;;;3.10;2.80;;;23.00;52.50;;;;;;5008316;28;20446;-85
2022/05/02 07:50:06;;;;;;;2.97;2.33;;;23.00;52.50;;;;;;5007313;28;20423;-85
2022/05/02 07:52:40;;;;;;;2.77;2.53;;;23.00;52.50;;;;;;5008419;28;20420;-85
2022/05/02 07:55:08;;;;;;;2.57;2.37;;;23.00;52.50;;;;;;5025764;28;20460;-85
2022/05/02 07:57:38;;;;;;;2.70;2.50;;;23.00;52.40;;;;;;4990364;28;20430;-85
2022/05/02 08:00:10;;;;;;;2.70;2.50;;;23.00;52.50;;;;;;4990371;28;20439;-85
2022/05/02 08:02:38;;;;;;;2.70;2.40;;;23.00;52.40;;;;;;4992366;28;20429;-85
2022/05/02 08:05:05;;;;;;;2.57;2.37;;;23.00;52.40;;;;;;5008930;28;20424;-84
2022/05/02 08:07:44;;;;;;;3.20;2.90;;;23.00;52.40;;;;;;5009344;28;20533;-84
2022/05/02 08:10:34;;;;;;;3.17;2.87;;;23.10;52.50;;;;;;5008191;28;20416;-84
2022/05/02 08:13:15;;;;;;;2.63;2.43;;;23.00;52.40;;;;;;5000940;28;20417;-84
2022/05/02 08:15:58;;;;;;;2.80;2.60;;;23.00;52.40;;;;;;4987972;28;20886;-84
2022/05/02 08:18:39;;;;;;;2.87;2.67;;;23.00;52.40;;;;;;4995321;28;20449;-84
2022/05/02 08:21:28;;;;;;;3.70;2.53;;;23.10;52.50;;;;;;5007550;28;20412;-85
2022/05/02 08:27:34;;;;;;;2.73;2.50;;;23.00;52.40;;;;;;5002138;28;20442;-84
2022/05/02 08:30:23;;;;;;;3.63;2.67;;;23.00;52.40;;;;;;5006351;28;20459;-84
2022/05/02 08:33:12;;;;;;;2.60;2.40;;;23.00;52.50;;;;;;4975807;28;20422;-84
2022/05/02 08:36:01;;;;;;;2.43;2.10;;;23.00;52.50;;;;;;4973879;28;20823;-84
2022/05/02 08:38:33;;;;;;;3.20;2.30;;;23.00;52.50;;;;;;4956551;28;20414;-85
2022/05/02 08:41:08;;;;;;;2.47;2.03;;;23.00;52.50;;;;;;4960175;28;20512;-85
2022/05/02 08:44:18;;;;;;;2.57;2.37;;;23.00;52.50;;;;;;4959174;28;20428;-85
2022/05/02 08:47:16;;;;;;;2.43;2.23;;;23.10;52.60;;;;;;4972022;28;20418;-85
2022/05/02 08:50:21;;;;;;;2.90;2.60;;;23.10;52.60;;;;;;4975116;28;20422;-85
2022/05/02 08:53:17;;;;;;;2.23;2.03;;;23.00;52.50;;;;;;4959102;28;20433;-85
2022/05/02 08:56:02;;;;;;;3.37;2.77;;;23.00;52.50;;;;;;4974460;28;20438;-85
2022/05/02 08:58:56;;;;;;;2.00;1.90;;;23.00;52.60;;;;;;4958217;28;20455;-85
2022/05/02 09:01:43;;;;;;;3.07;2.70;;;23.00;52.60;;;;;;4972412;28;20417;-85
2022/05/02 09:04:18;;;;;;;2.00;1.80;;;23.00;52.50;;;;;;4977973;28;20413;-85
2022/05/02 09:07:20;;;;;;;2.70;2.50;;;23.00;52.60;;;;;;4958707;28;20429;-85
2022/05/02 09:09:46;;;;;;;2.30;2.10;;;23.10;52.60;;;;;;4983108;28;20497;-85
2022/05/02 09:12:21;;;;;;;2.40;2.20;;;23.00;52.60;;;;;;5001939;28;20437;-86
2022/05/02 09:15:24;;;;;;;4.87;2.60;;;23.00;52.50;;;;;;4994226;28;20233;-85
2022/05/02 09:18:28;;;;;;;2.73;2.10;;;23.10;52.60;;;;;;5001486;28;20451;-85
2022/05/02 09:20:56;;;;;;;2.90;2.60;;;23.10;52.60;;;;;;5006687;28;20483;-85
2022/05/02 09:23:33;;;;;;;2.30;2.07;;;23.00;52.50;;;;;;5006319;28;20417;-85
2022/05/02 09:26:27;;;;;;;2.57;2.37;;;23.10;52.60;;;;;;5006438;28;20455;-85
2022/05/02 09:29:25;;;;;;;2.63;2.40;;;23.10;52.50;;;;;;5004720;28;20444;-85
2022/05/02 09:32:21;;;;;;;2.43;2.23;;;23.10;52.60;;;;;;5004849;28;20436;-85
2022/05/02 09:34:57;;;;;;;2.60;2.40;;;23.10;52.50;;;;;;5006366;28;20471;-85
2022/05/02 09:37:45;;;;;;;2.50;2.30;;;23.10;52.60;;;;;;5002887;28;20505;-85
2022/05/02 09:40:14;;;;;;;2.70;2.50;;;23.10;52.60;;;;;;4999162;28;20492;-85
2022/05/02 09:42:43;;;;;;;3.47;2.50;;;23.10;52.50;;;;;;5006573;28;20488;-85
2022/05/02 09:51:50;;;;;;;3.10;2.73;;;23.10;52.50;;;;;;5007789;28;20431;-87
2022/05/02 09:57:45;;;;;;;2.40;2.20;;;23.10;52.70;;;;;;5008190;28;20396;-84
2022/05/02 10:03:25;;;;;;;2.73;2.53;;;23.10;52.60;;;;;;5008027;28;20423;-84
2022/05/02 10:06:06;;;;;;;2.13;1.90;;;23.10;52.60;;;;;;5014988;28;20975;-84
2022/05/02 10:08:48;;;;;;;2.63;2.43;;;23.10;52.70;;;;;;5008523;28;20458;-84
2022/05/02 10:11:34;;;;;;;3.93;2.03;;;23.10;52.60;;;;;;5005864;28;20428;-84
2022/05/02 10:14:23;;;;;;;2.37;2.17;;;23.10;52.70;;;;;;5007645;28;21033;-84
2022/05/02 10:17:06;;;;;;;2.57;2.30;;;23.10;52.70;;;;;;5006711;28;20404;-83
2022/05/02 10:19:41;;;;;;;2.70;2.17;;;23.10;52.70;;;;;;5023683;28;20432;-85
2022/05/02 10:22:28;;;;;;;2.47;2.20;;;23.10;52.70;;;;;;5008943;28;20514;-84
2022/05/02 10:25:11;;;;;;;4.73;2.20;;;23.10;52.70;;;;;;5008621;28;20425;-84
2022/05/02 10:28:15;;;;;;;2.23;2.00;;;23.10;52.70;;;;;;5008528;28;20421;-84
2022/05/02 10:31:03;;;;;;;2.47;2.27;;;23.10;52.70;;;;;;5003330;28;20447;-84
2022/05/02 10:33:50;;;;;;;2.33;2.13;;;23.10;52.70;;;;;;5009559;28;20460;-85
2022/05/02 10:36:20;;;;;;;2.27;2.07;;;23.10;52.70;;;;;;5006742;28;20415;-85
2022/05/02 10:38:55;;;;;;;2.37;2.17;;;23.10;52.70;;;;;;5001924;28;20425;-85
2022/05/02 10:41:43;;;;;;;2.30;2.10;;;23.10;52.70;;;;;;5004477;28;20423;-84
2022/05/02 10:44:14;;;;;;;2.20;2.00;;;23.10;52.70;;;;;;5006695;28;20456;-85
2022/05/02 10:46:43;;;;;;;2.37;2.17;;;23.10;52.70;;;;;;5006479;28;20428;-85
2022/05/02 10:49:27;;;;;;;2.53;2.33;;;23.10;52.70;;;;;;5008064;28;20421;-85
2022/05/02 10:51:59;;;;;;;2.50;2.30;;;23.10;52.70;;;;;;5017879;28;20424;-84
2022/05/02 10:54:37;;;;;;;2.53;2.30;;;23.10;52.80;;;;;;5007600;28;20486;-85
2022/05/02 10:57:30;;;;;;;2.80;2.60;;;23.10;52.80;;;;;;5007916;28;20427;-84
2022/05/02 11:00:06;;;;;;;2.80;2.60;;;23.10;52.80;;;;;;4997471;28;21005;-85
2022/05/02 11:02:59;;;;;;;3.50;2.70;;;23.10;52.90;;;;;;5007265;28;20438;-84
2022/05/02 11:05:43;;;;;;;2.87;2.43;;;23.10;52.90;;;;;;5007373;28;20467;-85
2022/05/02 11:08:11;;;;;;;3.10;2.80;;;23.10;52.90;;;;;;5008934;28;20416;-85
2022/05/02 11:10:47;;;;;;;2.63;2.43;;;23.10;53.00;;;;;;5008154;28;20425;-84
2022/05/02 11:13:24;;;;;;;2.67;2.20;;;23.10;53.00;;;;;;5007846;28;20517;-84
2022/05/02 11:16:17;;;;;;;3.10;2.90;;;23.10;53.00;;;;;;5000617;28;20420;-84
2022/05/02 11:22:19;;;;;;;3.10;2.23;;;23.10;53.10;;;;;;5003021;28;20434;-86
2022/05/02 11:24:51;;;;;;;3.20;2.63;;;23.10;53.10;;;;;;5024353;28;20471;-84
2022/05/02 11:27:24;;;;;;;4.60;2.60;;;23.10;53.20;;;;;;5024281;28;20460;-84
2022/05/02 11:30:09;;;;;;;3.83;3.33;;;23.10;53.20;;;;;;5000195;28;20454;-84
2022/05/02 11:33:04;;;;;;;2.90;2.70;;;23.10;53.20;;;;;;5009531;28;20415;-85
2022/05/02 11:35:33;;;;;;;3.57;3.27;;;23.10;53.20;;;;;;5008697;28;20424;-84
2022/05/02 11:38:17;;;;;;;3.03;2.47;;;23.10;53.30;;;;;;5008463;28;20428;-84
2022/05/02 11:40:49;;;;;;;3.90;3.10;;;23.10;53.30;;;;;;5005703;28;20436;-83
2022/05/02 11:43:20;;;;;;;2.70;2.50;;;23.10;53.30;;;;;;5008371;28;20435;-83
2022/05/02 11:46:13;;;;;;;4.27;2.90;;;23.10;53.40;;;;;;5008104;28;20488;-84
2022/05/02 11:49:10;;;;;;;2.47;2.27;;;23.20;53.50;;;;;;5004939;28;20440;-84
2022/05/02 11:52:17;;;;;;;3.10;2.80;;;23.20;53.50;;;;;;5000297;28;20421;-86
2022/05/02 11:54:51;;;;;;;2.97;2.67;;;23.20;53.50;;;;;;5007464;28;20455;-86
2022/05/02 11:57:26;;;;;;;2.67;2.47;;;23.10;54.00;;;;;;5008630;28;20447;-85
2022/05/02 12:00:06;;;;;;;2.90;2.60;;;23.10;53.60;;;;;;5008222;28;20447;-85
2022/05/02 12:02:40;;;;;;;3.47;2.60;;;23.10;53.60;;;;;;5008599;28;20416;-84
2022/05/02 12:05:18;;;;;;;2.93;2.60;;;23.10;53.60;;;;;;5022503;28;20432;-85
2022/05/02 12:07:51;;;;;;;2.57;2.23;;;23.10;53.60;;;;;;5006763;28;20448;-84
2022/05/02 12:10:18;;;;;;;4.63;2.97;;;23.10;53.60;;;;;;5001660;28;20412;-85
2022/05/02 12:12:49;;;;;;;2.40;2.20;;;23.20;53.70;;;;;;5007428;28;20440;-84
2022/05/02 12:15:18;;;;;;;3.43;2.70;;;23.20;53.80;;;;;;5004557;28;20456;-85
2022/05/02 12:18:08;;;;;;;2.83;2.43;;;23.10;53.70;;;;;;5004135;28;20428;-85
2022/05/02 12:20:37;;;;;;;2.83;2.53;;;23.20;53.80;;;;;;5021844;28;20421;-84
2022/05/02 12:23:05;;;;;;;3.17;2.60;;;23.20;53.80;;;;;;5007705;28;20820;-85
2022/05/02 12:25:50;;;;;;;2.20;2.00;;;23.20;53.80;;;;;;5008237;28;20432;-84
2022/05/02 12:28:39;;;;;;;2.30;2.10;;;23.20;53.80;;;;;;4986713;28;20437;-85
2022/05/02 12:31:07;;;;;;;2.50;2.30;;;23.20;53.80;;;;;;5005434;28;20428;-85
2022/05/02 12:33:41;;;;;;;2.73;2.23;;;23.10;53.80;;;;;;5007797;28;20444;-84
2022/05/02 12:36:18;;;;;;;2.63;2.20;;;23.20;53.90;;;;;;5005616;28;20429;-84
2022/05/02 12:38:55;;;;;;;3.00;2.80;;;23.20;53.90;;;;;;5003170;28;20436;-83
2022/05/02 12:41:26;;;;;;;3.40;2.37;;;23.20;53.80;;;;;;5000986;28;20424;-84
2022/05/02 12:43:54;;;;;;;3.13;2.63;;;23.20;53.90;;;;;;5006514;28;20416;-84
2022/05/02 12:46:26;;;;;;;2.40;2.20;;;23.20;53.90;;;;;;5005484;28;20432;-83
2022/05/02 12:49:03;;;;;;;3.17;2.77;;;23.20;53.90;;;;;;5006626;28;20431;-83
2022/05/02 12:51:32;;;;;;;2.00;1.80;;;23.20;53.80;;;;;;5006557;28;20445;-84
2022/05/02 12:54:14;;;;;;;2.80;2.60;;;23.20;53.90;;;;;;5005096;28;20456;-84
2022/05/02 13:02:52;;;;;;;2.70;2.10;;;23.10;53.80;;;;;;5003127;28;20419;-82
2022/05/02 13:05:23;;;;;;;4.07;2.43;;;23.10;53.80;;;;;;5006623;28;20431;-84
2022/05/02 13:07:56;;;;;;;2.93;2.30;;;23.10;53.80;;;;;;5010038;28;20428;-84
2022/05/02 13:10:40;;;;;;;2.37;2.17;;;23.10;53.80;;;;;;5006078;28;20433;-84
2022/05/02 13:13:15;;;;;;;2.57;2.37;;;23.10;53.80;;;;;;5009073;28;20432;-84
2022/05/02 13:15:59;;;;;;;2.60;2.40;;;23.10;53.80;;;;;;5006416;28;20416;-84
2022/05/02 13:18:30;;;;;;;2.70;2.50;;;23.10;53.90;;;;;;5004703;28;20470;-84
2022/05/02 13:21:10;;;;;;;2.90;2.37;;;23.10;53.90;;;;;;5001134;28;20430;-84
2022/05/02 13:23:44;;;;;;;4.33;2.70;;;23.20;54.00;;;;;;5008058;28;20428;-84
2022/05/02 13:26:42;;;;;;;2.93;2.47;;;23.10;53.80;;;;;;5005121;28;20452;-84
2022/05/02 13:29:08;;;;;;;3.13;2.37;;;23.20;54.00;;;;;;5016587;28;20455;-84
2022/05/02 13:32:02;;;;;;;3.30;2.23;;;23.10;53.90;;;;;;4949639;28;20423;-85
2022/05/02 13:34:57;;;;;;;2.60;2.37;;;23.10;53.90;;;;;;4944892;28;20458;-84
2022/05/02 13:37:36;;;;;;;4.33;2.80;;;23.10;53.90;;;;;;5007515;28;20447;-84
2022/05/02 13:40:02;;;;;;;2.70;2.50;;;23.10;53.90;;;;;;5013153;28;20447;-84
2022/05/02 13:42:59;;;;;;;4.00;2.70;;;23.10;53.90;;;;;;4997478;28;20420;-84
2022/05/02 13:45:31;;;;;;;2.87;2.53;;;23.10;53.80;;;;;;4994954;28;20189;-84
2022/05/02 13:48:37;;;;;;;2.90;2.43;;;23.10;53.80;;;;;;5012284;28;20431;-84
2022/05/02 13:51:27;;;;;;;2.30;2.10;;;23.10;53.80;;;;;;5013963;28;20428;-86
2022/05/02 13:54:13;;;;;;;3.37;3.07;;;23.10;53.90;;;;;;4973956;28;20445;-84
2022/05/02 13:57:17;;;;;;;3.90;2.90;;;23.10;53.80;;;;;;4958673;29;20417;-84
2022/05/02 13:59:55;;;;;;;3.13;2.70;;;23.10;53.80;;;;;;4958944;29;20418;-84
2022/05/02 14:02:53;;;;;;;3.53;2.57;;;23.10;53.80;;;;;;4975736;29;20497;-84
2022/05/02 14:05:31;;;;;;;2.80;2.60;;;23.10;53.70;;;;;;4980125;28;20485;-84
2022/05/02 14:08:00;;;;;;;2.30;2.10;;;23.10;53.70;;;;;;4977724;28;20449;-84